Clipper Titan — C6V2055 — position and weather

sailwx.info

Track history (hours):
 
Tides and Currents Weather Stations Pressure Air Temp Water Temp Dewpoint Dewpoint Depression Visibility Wind Speed Wind Dir Waves Ship Positions

Clipper Titan

Last reported at 2015-Aug-26 02:33 UTC. Time now 2015-Sep-05 05:50 UTC.
Position N 34°26' W 007°55'.
Warning: this ship's position is 10 days out of date.

; draft 8.6 m.

Type: Cargo ship. MMSI: 311008200.

Date/timePositionNaut miles runAvg speedWind from/ knotsBaromVisibWave heightAir tempDewpointWater temp
2015-Aug-26 02:33N 34°26' W 007°55'34710.2
2015-Aug-24 16:33N 36°35' W 001°19'107 9.5
2015-Aug-24 05:19N 36°58' E 000°51'48 8.2
2015-Aug-23 23:24N 37°08' E 001°50'2510.8
2015-Aug-23 21:03N 37°13' E 002°22'510.8
2015-Aug-23 20:33N 37°14' E 002°28'1110.7
2015-Aug-23 19:34N 37°17' E 002°41'1110.4
2015-Aug-23 18:33N 37°19' E 002°54'1010.4
2015-Aug-23 17:33N 37°21' E 003°07'3210.6
2015-Aug-23 14:32N 37°28' E 003°47'1310.9
2015-Aug-23 13:21N 37°30' E 004°02'1011.0
2015-Aug-23 12:29N 37°31' E 004°14'1111.2
2015-Aug-23 11:30N 37°31' E 004°28'4911.7
2015-Aug-23 07:22N 37°34' E 005°29'7512.0
2015-Aug-23 01:06N 37°38' E 007°04'4312.1
2015-Aug-22 21:32N 37°41' E 007°58'1212.3
2015-Aug-22 20:33N 37°41' E 008°14'2611.9
2015-Aug-22 18:21N 37°43' E 008°47'1111.9
2015-Aug-22 17:25N 37°43' E 009°01'1011.8
2015-Aug-22 16:33N 37°43' E 009°14'1211.8
2015-Aug-22 15:33N 37°42' E 009°28'1211.7
2015-Aug-22 14:33N 37°41' E 009°43'1211.7
2015-Aug-22 13:33N 37°40' E 009°58'16311.4
2015-Aug-21 23:17N 36°44' E 013°10'1211.9
2015-Aug-21 22:15N 36°40' E 013°24'811.6
2015-Aug-21 21:34N 36°37' E 013°34'1211.3
2015-Aug-21 20:32N 36°33' E 013°47'1111.6
2015-Aug-21 19:34N 36°29' E 014°00'1211.6
2015-Aug-21 18:33N 36°25' E 014°14'1211.6
2015-Aug-21 17:34N 36°21' E 014°28'1211.8
2015-Aug-21 16:34N 36°20' E 014°42'1211.7
2015-Aug-21 15:33N 36°19' E 014°57'40511.6
2015-Aug-20 04:31N 36°17' E 023°19'1312.2
2015-Aug-20 03:29N 36°27' E 023°28'1112.4
2015-Aug-20 02:34N 36°37' E 023°36'1312.6
2015-Aug-20 01:33N 36°47' E 023°44'1312.1
2015-Aug-20 00:30N 36°59' E 023°50'1112.0
2015-Aug-19 23:33N 37°10' E 023°56'1212.1
2015-Aug-19 22:34N 37°20' E 024°02'1512.1
2015-Aug-19 21:21N 37°34' E 024°10'1012.1
2015-Aug-19 20:32N 37°43' E 024°15'5112.1
2015-Aug-19 16:18N 38°24' E 024°54'24110.6
2015-Aug-18 17:27N 40°57' E 028°56'280 9.6
2015-Aug-17 12:18N 43°18' E 034°21'3312.2
2015-Aug-17 09:33N 43°34' E 035°02'1212.5
2015-Aug-17 08:34N 43°39' E 035°18'1312.4
2015-Aug-17 07:33N 43°45' E 035°33'1212.2
2015-Aug-17 06:34N 43°51' E 035°48'2512.4
2015-Aug-17 04:31N 44°02' E 036°19'1312.9
2015-Aug-17 03:32N 44°07' E 036°35'64 3.7
2015-Aug-16 10:18N 44°41' E 037°51'0 0.0
2015-Aug-16 09:33N 44°41' E 037°51'0 0.0
2015-Aug-16 08:33N 44°41' E 037°51'0 0.0
2015-Aug-16 07:33N 44°41' E 037°51'0 0.1
2015-Aug-16 06:33N 44°41' E 037°51'0 0.0
2015-Aug-16 05:33N 44°41' E 037°51'0 0.1
2015-Aug-16 04:33N 44°41' E 037°51'0 0.2
2015-Aug-16 03:33N 44°41' E 037°51'  
Track history (hours):
 
Tides and Currents Weather Stations Pressure Air Temp Water Temp Dewpoint Dewpoint Depression Visibility Wind Speed Wind Dir Waves Ship Positions

Clipper Titan

Last reported at 2015-Aug-26 02:33 UTC. Time now 2015-Sep-05 05:50 UTC.
Position N 34°26' W 007°55'.
Warning: this ship's position is 10 days out of date.

; draft 8.6 m.

Type: Cargo ship. MMSI: 311008200.

Date/timePositionNaut miles runAvg speedWind from/ knotsBaromVisibWave heightAir tempDewpointWater temp
2015-Aug-26 02:33N 34°26' W 007°55'34710.2
2015-Aug-24 16:33N 36°35' W 001°19'107 9.5
2015-Aug-24 05:19N 36°58' E 000°51'48 8.2
2015-Aug-23 23:24N 37°08' E 001°50'2510.8
2015-Aug-23 21:03N 37°13' E 002°22'510.8
2015-Aug-23 20:33N 37°14' E 002°28'1110.7
2015-Aug-23 19:34N 37°17' E 002°41'1110.4
2015-Aug-23 18:33N 37°19' E 002°54'1010.4
2015-Aug-23 17:33N 37°21' E 003°07'3210.6
2015-Aug-23 14:32N 37°28' E 003°47'1310.9
2015-Aug-23 13:21N 37°30' E 004°02'1011.0
2015-Aug-23 12:29N 37°31' E 004°14'1111.2
2015-Aug-23 11:30N 37°31' E 004°28'4911.7
2015-Aug-23 07:22N 37°34' E 005°29'7512.0
2015-Aug-23 01:06N 37°38' E 007°04'4312.1
2015-Aug-22 21:32N 37°41' E 007°58'1212.3
2015-Aug-22 20:33N 37°41' E 008°14'2611.9
2015-Aug-22 18:21N 37°43' E 008°47'1111.9
2015-Aug-22 17:25N 37°43' E 009°01'1011.8
2015-Aug-22 16:33N 37°43' E 009°14'1211.8
2015-Aug-22 15:33N 37°42' E 009°28'1211.7
2015-Aug-22 14:33N 37°41' E 009°43'1211.7
2015-Aug-22 13:33N 37°40' E 009°58'16311.4
2015-Aug-21 23:17N 36°44' E 013°10'1211.9
2015-Aug-21 22:15N 36°40' E 013°24'811.6
2015-Aug-21 21:34N 36°37' E 013°34'1211.3
2015-Aug-21 20:32N 36°33' E 013°47'1111.6
2015-Aug-21 19:34N 36°29' E 014°00'1211.6
2015-Aug-21 18:33N 36°25' E 014°14'1211.6
2015-Aug-21 17:34N 36°21' E 014°28'1211.8
2015-Aug-21 16:34N 36°20' E 014°42'1211.7
2015-Aug-21 15:33N 36°19' E 014°57'40511.6
2015-Aug-20 04:31N 36°17' E 023°19'1312.2
2015-Aug-20 03:29N 36°27' E 023°28'1112.4
2015-Aug-20 02:34N 36°37' E 023°36'1312.6
2015-Aug-20 01:33N 36°47' E 023°44'1312.1
2015-Aug-20 00:30N 36°59' E 023°50'1112.0
2015-Aug-19 23:33N 37°10' E 023°56'1212.1
2015-Aug-19 22:34N 37°20' E 024°02'1512.1
2015-Aug-19 21:21N 37°34' E 024°10'1012.1
2015-Aug-19 20:32N 37°43' E 024°15'5112.1
2015-Aug-19 16:18N 38°24' E 024°54'24110.6
2015-Aug-18 17:27N 40°57' E 028°56'280 9.6
2015-Aug-17 12:18N 43°18' E 034°21'3312.2
2015-Aug-17 09:33N 43°34' E 035°02'1212.5
2015-Aug-17 08:34N 43°39' E 035°18'1312.4
2015-Aug-17 07:33N 43°45' E 035°33'1212.2
2015-Aug-17 06:34N 43°51' E 035°48'2512.4
2015-Aug-17 04:31N 44°02' E 036°19'1312.9
2015-Aug-17 03:32N 44°07' E 036°35'64 3.7
2015-Aug-16 10:18N 44°41' E 037°51'0 0.0
2015-Aug-16 09:33N 44°41' E 037°51'0 0.0
2015-Aug-16 08:33N 44°41' E 037°51'0 0.0
2015-Aug-16 07:33N 44°41' E 037°51'0 0.1
2015-Aug-16 06:33N 44°41' E 037°51'0 0.0
2015-Aug-16 05:33N 44°41' E 037°51'0 0.1
2015-Aug-16 04:33N 44°41' E 037°51'0 0.2
2015-Aug-16 03:33N 44°41' E 037°51'  

Dump ship's entire track history